Atlantic Mine, Michigan
Current Conditions -  °F | °C
As of 4:53 PM on Sunday 25 Jan 2015 (Local Time) from KCMX Reporting Station
Scattered Clouds Scattered Clouds  
Wind Chill:   Ceiling: Unl
Heat Index: 14°   Visibility: 10mi
Dew Point:   Wind: 8mph
Humidity: 64%   Direction: 120°ESE
Pressure: 30.03"   Gusts: NA
Location:  47.1°N, 88.63°W
Report Text: KCMX 252153Z AUTO 12007KT 10SM SCT026 M10/M16 A3003 RMK AO2 SLP191 T11001156
Loading
Personal Weather Stations






























Interactive Weather Map New forecast layout! Learn more

10-Day Weather Forecast

Advertisements
Track Severe Weather on mobile